Terminal Aerodrome Forecast
Issued by NWS Corpus Christi, TX

Home | Current Version | Previous Version | Text Only | Print | Product List | Glossary On
Versions: 1 2 3 4 5 6 7 8 9 10 11 12 13 14 15 16
000
FTUS44 KCRP 181100
TAFCRP
TAF
KCRP 181129Z 1812/1912 12005KT P6SM VCSH SCT015 BKN022
      TEMPO 1814/1818 -SHRA BKN015
     FM181800 13010KT P6SM VCSH SCT024 BKN035
     FM190000 13009KT P6SM BKN018
     FM190600 16012KT 6SM BR BKN009 OVC014 PROB30 1909/1912 4SM TSRA
      BR BKN007CB=

USA.gov is the U.S. government's official web portal to all federal, state and local government web resources and services.